To NAV CANADA Home Page Login to a new session Search on AWWS site Feedback and Comments Disclaimer Vers la page française équivalente Tips FAQ What's new on the site To the Forecasts and Observations / NOTAM section To "File a Flight Plan" website Publications and other links Update of the User's profile FIC Telephone Numbers My Weather Data Folder Route Weather Data Regional Weather Data Local Weather Data To the Forecasts and Observations / NOTAM section
Request Generated 02/07/2016 at 23:25:57 UTC . Weather information available at that time is displayed.

METAR/TAF

CLYDE RIVER/NU    (show WxCam)

METAR CYCY 072300Z AUTO 31007KT 9SM BKN110 M27/M30 A2979 RMK SLP094
DENSITY ALT MISG=
METAR CYCY 072200Z AUTO 33011KT 9SM OVC065 M25/M28 A2979 RMK SLP092=
METAR CYCY 072100Z AUTO 32014KT 9SM OVC065 M25/M28 A2977 RMK SLP088=

TAF CYCY 071838Z 0719/0807 32012KT P6SM BKN060 TEMPO 0719/0807 P6SM
-SN BKN040
BECMG 0801/0803 29006KT
RMK FCST BASED ON AUTO OBS. NXT FCST BY 080100Z=
Your time UTC time
Weather data provided by Environment Canada and NAV CANADA